Time;durP1;ratioP1;P1;durP2;ratioP2;P2;SDS_P1;SDS_P2;PMS_P1;PMS_P2;Temp;Humidity;BMP_temperature;BMP_pressure;BME280_temperature;BME280_humidity;BME280_pressure;Samples;Min_cycle;Max_cycle;Signal;HPM_P1;HPM_P2
2023/12/24 00:01:11;;;;;;;2.80;0.90;;;;;;;;;;4993705;28;20199;-81
2023/12/24 00:03:41;;;;;;;7.28;1.10;;;;;;;;;;4989839;28;20192;-82
2023/12/24 00:06:11;;;;;;;2.80;0.80;;;;;;;;;;4986477;28;20515;-81
2023/12/24 00:08:41;;;;;;;3.95;0.93;;;;;;;;;;4991904;28;20302;-82
2023/12/24 00:11:11;;;;;;;3.03;0.90;;;;;;;;;;4992497;28;20286;-81
2023/12/24 00:13:41;;;;;;;4.15;0.90;;;;;;;;;;4993152;28;20200;-82
2023/12/24 00:16:12;;;;;;;4.15;0.98;;;;;;;;;;4991714;28;20204;-81
2023/12/24 00:18:42;;;;;;;6.20;1.15;;;;;;;;;;4986949;28;20226;-81
2023/12/24 00:21:14;;;;;;;6.18;1.00;;;;;;;;;;4983923;28;20200;-80
2023/12/24 00:23:45;;;;;;;3.00;0.85;;;;;;;;;;4996300;28;20188;-79
2023/12/24 00:26:15;;;;;;;4.40;1.00;;;;;;;;;;4995684;28;20187;-82
2023/12/24 00:28:45;;;;;;;9.15;1.00;;;;;;;;;;4996068;28;20191;-82
2023/12/24 00:31:17;;;;;;;10.23;1.55;;;;;;;;;;4997145;28;20192;-82
2023/12/24 00:33:47;;;;;;;3.47;0.85;;;;;;;;;;4996505;28;20196;-81
2023/12/24 00:36:17;;;;;;;4.35;1.10;;;;;;;;;;4997023;28;20575;-81
2023/12/24 00:38:49;;;;;;;4.88;1.10;;;;;;;;;;4994265;28;20215;-80
2023/12/24 00:41:19;;;;;;;6.15;1.27;;;;;;;;;;4994695;28;20195;-80
2023/12/24 00:43:49;;;;;;;10.27;1.70;;;;;;;;;;4996837;28;20226;-80
2023/12/24 00:46:21;;;;;;;9.68;1.95;;;;;;;;;;4996615;28;20195;-80
2023/12/24 00:48:51;;;;;;;4.20;1.10;;;;;;;;;;4992824;28;20707;-82
2023/12/24 00:51:21;;;;;;;6.18;1.60;;;;;;;;;;4994140;28;20287;-83
2023/12/24 00:53:50;;;;;;;5.25;1.52;;;;;;;;;;4986097;28;20203;-83
2023/12/24 00:56:20;;;;;;;7.00;1.52;;;;;;;;;;4995272;28;20211;-84
2023/12/24 00:58:50;;;;;;;7.82;1.88;;;;;;;;;;4986794;28;20216;-84
2023/12/24 01:01:22;;;;;;;6.95;1.70;;;;;;;;;;4996258;28;20203;-81
2023/12/24 01:03:52;;;;;;;6.45;1.45;;;;;;;;;;4993906;28;20273;-81
2023/12/24 01:06:22;;;;;;;6.82;1.42;;;;;;;;;;4993538;28;20208;-82
2023/12/24 01:08:52;;;;;;;7.90;1.58;;;;;;;;;;4981186;28;20220;-81
2023/12/24 01:11:22;;;;;;;9.90;1.70;;;;;;;;;;4983362;28;20200;-82
2023/12/24 01:13:50;;;;;;;8.05;2.40;;;;;;;;;;4995054;28;20204;-84
2023/12/24 01:16:22;;;;;;;8.23;2.30;;;;;;;;;;4977597;28;20276;-82
2023/12/24 01:18:52;;;;;;;8.65;2.28;;;;;;;;;;4991454;28;20219;-83
2023/12/24 01:21:23;;;;;;;8.88;2.00;;;;;;;;;;4993714;28;20222;-84
2023/12/24 01:23:53;;;;;;;5.03;1.73;;;;;;;;;;4993847;28;20208;-80
2023/12/24 01:26:22;;;;;;;8.70;2.17;;;;;;;;;;4994895;28;20316;-82
2023/12/24 01:28:52;;;;;;;8.73;1.80;;;;;;;;;;4993370;28;20619;-81
2023/12/24 01:31:25;;;;;;;4.90;1.55;;;;;;;;;;4995479;28;20199;-80
2023/12/24 01:33:54;;;;;;;7.22;1.30;;;;;;;;;;4995878;28;20214;-81
2023/12/24 01:36:24;;;;;;;5.50;1.48;;;;;;;;;;4994572;28;20199;-83
2023/12/24 01:38:54;;;;;;;6.68;1.70;;;;;;;;;;4995818;28;20223;-82
2023/12/24 01:41:27;;;;;;;5.05;1.50;;;;;;;;;;4995813;28;20214;-84
2023/12/24 01:43:57;;;;;;;5.13;1.85;;;;;;;;;;4995890;28;20214;-83
2023/12/24 01:46:29;;;;;;;6.45;2.13;;;;;;;;;;4995741;28;20567;-82
2023/12/24 01:48:59;;;;;;;7.50;1.60;;;;;;;;;;4995550;28;20235;-84
2023/12/24 01:51:29;;;;;;;7.80;1.63;;;;;;;;;;4995701;28;20644;-83
2023/12/24 01:53:59;;;;;;;5.60;1.70;;;;;;;;;;4995546;28;20199;-81
2023/12/24 01:56:30;;;;;;;7.82;1.85;;;;;;;;;;4988914;28;20202;-83
2023/12/24 01:59:00;;;;;;;6.45;1.85;;;;;;;;;;4976134;28;20220;-80
2023/12/24 02:01:32;;;;;;;7.22;1.63;;;;;;;;;;4984271;28;20210;-80
2023/12/24 02:04:02;;;;;;;3.45;1.23;;;;;;;;;;4995601;28;20192;-82
2023/12/24 02:06:32;;;;;;;5.38;1.10;;;;;;;;;;4991817;28;20208;-82
2023/12/24 02:09:02;;;;;;;6.00;1.55;;;;;;;;;;4995320;28;20227;-80
2023/12/24 02:11:32;;;;;;;11.00;1.50;;;;;;;;;;4994408;28;20206;-82
2023/12/24 02:14:02;;;;;;;6.53;1.35;;;;;;;;;;4995053;28;20294;-82
2023/12/24 02:16:39;;;;;;;7.13;1.30;;;;;;;;;;4995475;28;20238;-81
2023/12/24 02:19:09;;;;;;;6.43;1.17;;;;;;;;;;4995072;28;20223;-81
2023/12/24 02:21:41;;;;;;;9.15;1.70;;;;;;;;;;4994759;28;20206;-81
2023/12/24 02:24:11;;;;;;;8.15;1.30;;;;;;;;;;4976806;28;20641;-82
2023/12/24 02:26:43;;;;;;;9.25;1.50;;;;;;;;;;4975697;28;20211;-85
2023/12/24 02:29:16;;;;;;;7.80;1.58;;;;;;;;;;4975941;28;20208;-80
2023/12/24 02:31:48;;;;;;;11.50;1.70;;;;;;;;;;4974744;28;20283;-83
2023/12/24 02:34:21;;;;;;;11.93;1.80;;;;;;;;;;4976044;28;20192;-86
2023/12/24 02:36:54;;;;;;;9.43;1.38;;;;;;;;;;4975798;28;20542;-84
2023/12/24 02:39:24;;;;;;;8.68;1.90;;;;;;;;;;4975849;28;20220;-82
2023/12/24 02:41:54;;;;;;;11.63;1.70;;;;;;;;;;4976974;28;20192;-85
2023/12/24 02:44:24;;;;;;;8.57;1.70;;;;;;;;;;4987501;28;20196;-85
2023/12/24 02:46:54;;;;;;;11.93;1.90;;;;;;;;;;4994867;28;20204;-83
2023/12/24 02:49:26;;;;;;;9.65;1.80;;;;;;;;;;4993327;28;20577;-83
2023/12/24 02:52:00;;;;;;;10.98;2.08;;;;;;;;;;4992018;28;20199;-83
2023/12/24 02:54:29;;;;;;;9.05;1.50;;;;;;;;;;4982941;28;20594;-82
2023/12/24 02:56:59;;;;;;;9.50;1.58;;;;;;;;;;4975704;28;20576;-82
2023/12/24 02:59:29;;;;;;;12.18;1.70;;;;;;;;;;4975472;28;20228;-81
2023/12/24 03:01:59;;;;;;;11.55;1.77;;;;;;;;;;4983657;28;20250;-80
2023/12/24 03:04:29;;;;;;;12.15;1.73;;;;;;;;;;4994157;28;20203;-80
2023/12/24 03:07:01;;;;;;;12.73;1.70;;;;;;;;;;4986713;28;20231;-81
2023/12/24 03:09:33;;;;;;;11.52;2.10;;;;;;;;;;4993696;28;20206;-82
2023/12/24 03:12:03;;;;;;;9.73;1.58;;;;;;;;;;4994489;28;20195;-81
2023/12/24 03:14:33;;;;;;;12.38;1.77;;;;;;;;;;4994613;28;20196;-80
2023/12/24 03:17:03;;;;;;;12.95;2.03;;;;;;;;;;4976978;28;20202;-81
2023/12/24 03:19:35;;;;;;;13.48;2.00;;;;;;;;;;4975452;28;20228;-82
2023/12/24 03:22:08;;;;;;;9.60;1.52;;;;;;;;;;4978808;28;20196;-80
2023/12/24 03:24:38;;;;;;;10.68;1.80;;;;;;;;;;4982125;28;20209;-82
2023/12/24 03:27:10;;;;;;;12.00;1.80;;;;;;;;;;4994040;28;20217;-82
2023/12/24 03:29:40;;;;;;;11.90;1.83;;;;;;;;;;4994493;28;20234;-81
2023/12/24 03:32:11;;;;;;;16.45;2.13;;;;;;;;;;4994188;28;20294;-83
2023/12/24 03:34:40;;;;;;;13.43;2.20;;;;;;;;;;4980914;28;20204;-82
2023/12/24 03:37:12;;;;;;;9.23;1.98;;;;;;;;;;4986214;28;20204;-83
2023/12/24 03:39:42;;;;;;;11.38;2.15;;;;;;;;;;4982010;28;20211;-80
2023/12/24 03:42:12;;;;;;;16.60;2.15;;;;;;;;;;4987285;28;20202;-82
2023/12/24 03:44:42;;;;;;;12.73;1.95;;;;;;;;;;4975315;28;20239;-82
2023/12/24 03:47:12;;;;;;;11.90;2.47;;;;;;;;;;4976711;28;20609;-82
2023/12/24 03:49:42;;;;;;;15.43;2.53;;;;;;;;;;4993662;28;20590;-83
2023/12/24 03:52:14;;;;;;;13.38;2.28;;;;;;;;;;4994055;28;20207;-83
2023/12/24 03:54:44;;;;;;;10.90;2.22;;;;;;;;;;4991502;28;20191;-82
2023/12/24 03:57:14;;;;;;;10.93;2.08;;;;;;;;;;4997799;28;20210;-83
2023/12/24 03:59:44;;;;;;;14.63;2.03;;;;;;;;;;4997171;28;20211;-82
2023/12/24 04:02:14;;;;;;;10.10;1.58;;;;;;;;;;4992022;28;20286;-82
2023/12/24 04:04:48;;;;;;;11.85;1.90;;;;;;;;;;4984252;28;20287;-84
2023/12/24 04:07:20;;;;;;;12.68;1.98;;;;;;;;;;4993561;28;20219;-83
2023/12/24 04:09:50;;;;;;;12.43;1.85;;;;;;;;;;4997376;28;20195;-83
2023/12/24 04:12:20;;;;;;;16.90;2.00;;;;;;;;;;4996160;28;20218;-82
2023/12/24 04:14:50;;;;;;;15.23;1.85;;;;;;;;;;4986252;28;20231;-83
2023/12/24 04:17:19;;;;;;;9.65;1.67;;;;;;;;;;4995877;28;20739;-82
2023/12/24 04:19:49;;;;;;;13.70;2.35;;;;;;;;;;4995929;28;20222;-82
2023/12/24 04:22:21;;;;;;;11.90;1.73;;;;;;;;;;4980033;28;20691;-83
2023/12/24 04:24:51;;;;;;;8.65;1.67;;;;;;;;;;4997388;28;20666;-82
2023/12/24 04:27:21;;;;;;;12.55;1.85;;;;;;;;;;4996410;28;20563;-82
2023/12/24 04:29:51;;;;;;;13.50;1.70;;;;;;;;;;4992616;28;20199;-81
2023/12/24 04:32:21;;;;;;;12.77;1.55;;;;;;;;;;4987896;28;20280;-82
2023/12/24 04:34:51;;;;;;;6.80;1.33;;;;;;;;;;4989757;28;20199;-83
2023/12/24 04:37:23;;;;;;;8.50;1.30;;;;;;;;;;4997365;28;20250;-81
2023/12/24 04:39:53;;;;;;;8.35;1.23;;;;;;;;;;4980216;28;20220;-81
2023/12/24 04:42:23;;;;;;;11.25;1.27;;;;;;;;;;4981188;28;20205;-83
2023/12/24 04:44:53;;;;;;;8.57;1.48;;;;;;;;;;4980564;28;20232;-81
2023/12/24 04:47:23;;;;;;;7.22;1.25;;;;;;;;;;4983443;28;20197;-82
2023/12/24 04:49:53;;;;;;;9.63;1.08;;;;;;;;;;4992948;28;20253;-82
2023/12/24 04:52:25;;;;;;;5.68;1.27;;;;;;;;;;4990566;28;20200;-80
2023/12/24 04:54:55;;;;;;;8.27;1.33;;;;;;;;;;4977427;28;20556;-81
2023/12/24 04:57:25;;;;;;;5.00;1.30;;;;;;;;;;4977994;28;20204;-81
2023/12/24 04:59:54;;;;;;;5.93;1.00;;;;;;;;;;4986108;28;20225;-80
2023/12/24 05:02:24;;;;;;;6.78;1.20;;;;;;;;;;4987124;28;20202;-81
2023/12/24 05:04:55;;;;;;;4.63;1.30;;;;;;;;;;4997023;28;20213;-81
2023/12/24 05:07:26;;;;;;;4.10;1.38;;;;;;;;;;4991919;28;20226;-81
2023/12/24 05:09:56;;;;;;;4.28;1.27;;;;;;;;;;5001448;28;20697;-81
2023/12/24 05:12:26;;;;;;;5.32;1.30;;;;;;;;;;5005662;28;20209;-81
2023/12/24 05:14:56;;;;;;;7.65;1.67;;;;;;;;;;4999709;28;20210;-81
2023/12/24 05:17:26;;;;;;;4.78;1.10;;;;;;;;;;4996621;28;20246;-82
2023/12/24 05:19:56;;;;;;;5.90;1.67;;;;;;;;;;4984652;28;20315;-82
2023/12/24 05:22:28;;;;;;;4.75;1.30;;;;;;;;;;4992115;28;20238;-82
2023/12/24 05:24:58;;;;;;;7.00;1.50;;;;;;;;;;4996112;28;20219;-81
2023/12/24 05:27:28;;;;;;;4.20;1.35;;;;;;;;;;4992786;28;20207;-82
2023/12/24 05:29:58;;;;;;;6.13;1.35;;;;;;;;;;4985328;28;20200;-81
2023/12/24 05:32:28;;;;;;;3.45;1.30;;;;;;;;;;4996652;28;20294;-82
2023/12/24 05:34:58;;;;;;;7.63;2.03;;;;;;;;;;4988265;28;20199;-81
2023/12/24 05:37:30;;;;;;;7.60;1.50;;;;;;;;;;4988110;28;20203;-83
2023/12/24 05:39:59;;;;;;;7.10;1.52;;;;;;;;;;4988194;28;20215;-80
2023/12/24 05:42:29;;;;;;;6.95;1.42;;;;;;;;;;4991722;28;20196;-80
2023/12/24 05:44:59;;;;;;;6.32;1.13;;;;;;;;;;4993614;28;20239;-82
2023/12/24 05:47:29;;;;;;;3.88;0.90;;;;;;;;;;4995551;28;20209;-82
2023/12/24 05:49:59;;;;;;;1.63;0.70;;;;;;;;;;4991579;28;20733;-82
2023/12/24 05:52:31;;;;;;;1.75;0.73;;;;;;;;;;4984542;28;20279;-83
2023/12/24 05:55:01;;;;;;;3.33;1.00;;;;;;;;;;4983579;28;20208;-84
2023/12/24 05:57:33;;;;;;;1.35;0.55;;;;;;;;;;4982544;28;20195;-82
2023/12/24 06:00:05;;;;;;;2.55;0.60;;;;;;;;;;5005272;28;20223;-83
2023/12/24 06:02:35;;;;;;;0.63;0.40;;;;;;;;;;4994332;28;20227;-82
2023/12/24 06:05:05;;;;;;;1.08;0.30;;;;;;;;;;4989195;28;20236;-81
2023/12/24 06:07:37;;;;;;;2.42;0.40;;;;;;;;;;4976316;28;20228;-82
2023/12/24 06:10:07;;;;;;;0.73;0.30;;;;;;;;;;5008645;28;20211;-83
2023/12/24 06:12:37;;;;;;;0.45;0.13;;;;;;;;;;4982068;28;20203;-80
2023/12/24 06:15:07;;;;;;;1.50;0.50;;;;;;;;;;4989244;28;20189;-79
2023/12/24 06:17:37;;;;;;;0.30;0.30;;;;;;;;;;4975326;28;20214;-82
2023/12/24 06:20:08;;;;;;;0.95;0.30;;;;;;;;;;4986536;28;20223;-82
2023/12/24 06:22:39;;;;;;;0.43;0.30;;;;;;;;;;4993898;28;20194;-81
2023/12/24 06:25:10;;;;;;;1.10;0.30;;;;;;;;;;4991127;28;20184;-81
2023/12/24 06:27:39;;;;;;;0.32;0.30;;;;;;;;;;4975557;28;20258;-82
2023/12/24 06:30:10;;;;;;;0.28;0.28;;;;;;;;;;4992185;28;20207;-82
2023/12/24 06:32:41;;;;;;;0.40;0.30;;;;;;;;;;4994835;28;20199;-80
2023/12/24 06:35:11;;;;;;;0.43;0.30;;;;;;;;;;4984146;28;20193;-82
2023/12/24 06:37:43;;;;;;;0.50;0.40;;;;;;;;;;4975573;28;20302;-81
2023/12/24 06:40:14;;;;;;;0.35;0.35;;;;;;;;;;4976116;28;20196;-80
2023/12/24 06:42:44;;;;;;;0.45;0.30;;;;;;;;;;4991956;28;20214;-81
2023/12/24 06:45:14;;;;;;;1.00;0.30;;;;;;;;;;4995249;28;20210;-82
2023/12/24 06:47:44;;;;;;;1.05;0.50;;;;;;;;;;4993335;28;20210;-81
2023/12/24 06:50:13;;;;;;;0.52;0.35;;;;;;;;;;4980199;28;20205;-82
2023/12/24 06:52:45;;;;;;;0.65;0.57;;;;;;;;;;4994176;28;20586;-82
2023/12/24 06:55:15;;;;;;;1.73;0.70;;;;;;;;;;4976720;28;20188;-82
2023/12/24 06:57:45;;;;;;;3.00;0.90;;;;;;;;;;4982763;28;20203;-80
2023/12/24 07:00:15;;;;;;;1.67;0.80;;;;;;;;;;4983168;28;20208;-83
2023/12/24 07:02:45;;;;;;;1.52;0.60;;;;;;;;;;4995301;28;20589;-82
2023/12/24 07:05:15;;;;;;;2.17;0.60;;;;;;;;;;4994024;28;20207;-82
2023/12/24 07:07:47;;;;;;;2.92;0.70;;;;;;;;;;4995178;28;20219;-82
2023/12/24 07:10:17;;;;;;;3.90;0.70;;;;;;;;;;4995863;28;20196;-82
2023/12/24 07:12:47;;;;;;;3.80;0.90;;;;;;;;;;4989146;28;20204;-81
2023/12/24 07:15:17;;;;;;;2.97;0.70;;;;;;;;;;4993110;28;20211;-82
2023/12/24 07:17:47;;;;;;;2.65;0.80;;;;;;;;;;4994282;28;20204;-82
2023/12/24 07:20:17;;;;;;;2.40;0.70;;;;;;;;;;4994056;28;20203;-83
2023/12/24 07:22:49;;;;;;;1.05;0.65;;;;;;;;;;4995251;28;20203;-82
2023/12/24 07:25:19;;;;;;;3.85;0.85;;;;;;;;;;4995028;28;20191;-82
2023/12/24 07:27:49;;;;;;;2.28;0.68;;;;;;;;;;4980894;28;20200;-81
2023/12/24 07:30:19;;;;;;;2.45;0.60;;;;;;;;;;4980746;28;20211;-81
2023/12/24 07:32:49;;;;;;;1.27;0.65;;;;;;;;;;4988822;28;20290;-82
2023/12/24 07:35:19;;;;;;;3.15;0.88;;;;;;;;;;4974297;28;20656;-81
2023/12/24 07:37:51;;;;;;;5.75;0.88;;;;;;;;;;4983580;28;20192;-81
2023/12/24 07:40:21;;;;;;;4.75;0.88;;;;;;;;;;4994266;28;20630;-81
2023/12/24 07:42:51;;;;;;;3.22;1.02;;;;;;;;;;4984442;28;20578;-81
2023/12/24 07:45:22;;;;;;;8.27;1.08;;;;;;;;;;4983908;28;20200;-82
2023/12/24 07:47:52;;;;;;;6.78;1.13;;;;;;;;;;4993633;28;20195;-81
2023/12/24 07:50:22;;;;;;;9.43;1.35;;;;;;;;;;4994030;28;20203;-82
2023/12/24 07:52:54;;;;;;;5.47;1.40;;;;;;;;;;4993987;28;20298;-81
2023/12/24 07:55:24;;;;;;;6.85;1.23;;;;;;;;;;4994712;28;20192;-81
2023/12/24 07:57:54;;;;;;;5.25;1.30;;;;;;;;;;4992586;28;20651;-82
2023/12/24 08:00:24;;;;;;;14.43;1.40;;;;;;;;;;4984767;28;20203;-83
2023/12/24 08:02:53;;;;;;;9.63;1.45;;;;;;;;;;4980984;28;20208;-82
2023/12/24 08:05:23;;;;;;;7.97;1.30;;;;;;;;;;4988954;28;20279;-82
2023/12/24 08:07:55;;;;;;;5.32;1.23;;;;;;;;;;4987425;28;20705;-80
2023/12/24 08:10:25;;;;;;;7.82;1.48;;;;;;;;;;4982533;28;20578;-81
2023/12/24 08:12:55;;;;;;;6.63;1.30;;;;;;;;;;4995903;28;20199;-81
2023/12/24 08:15:25;;;;;;;10.15;1.55;;;;;;;;;;4984372;28;20208;-82
2023/12/24 08:17:55;;;;;;;12.45;1.80;;;;;;;;;;4995601;28;20199;-82
2023/12/24 08:20:25;;;;;;;9.95;1.73;;;;;;;;;;4996369;28;20208;-82
2023/12/24 08:22:57;;;;;;;10.93;1.88;;;;;;;;;;4993784;28;20214;-82
2023/12/24 08:25:27;;;;;;;8.20;1.50;;;;;;;;;;4994018;28;20291;-82
2023/12/24 08:27:57;;;;;;;8.02;1.90;;;;;;;;;;4992759;28;20566;-82
2023/12/24 08:30:27;;;;;;;9.90;1.85;;;;;;;;;;4996202;28;20199;-82
2023/12/24 08:32:57;;;;;;;15.05;2.15;;;;;;;;;;4993367;28;20294;-81
2023/12/24 08:35:26;;;;;;;12.40;2.40;;;;;;;;;;4991106;28;20196;-81
2023/12/24 08:37:58;;;;;;;13.13;1.92;;;;;;;;;;4982663;28;20303;-80
2023/12/24 08:40:28;;;;;;;10.82;1.77;;;;;;;;;;4992331;28;20208;-81
2023/12/24 08:42:58;;;;;;;9.45;1.60;;;;;;;;;;4999597;28;20278;-81
2023/12/24 08:45:28;;;;;;;9.70;1.90;;;;;;;;;;5000019;28;20207;-81
2023/12/24 08:47:58;;;;;;;7.35;1.75;;;;;;;;;;5004514;28;20213;-80
2023/12/24 08:50:28;;;;;;;12.32;1.88;;;;;;;;;;5000887;28;20642;-80
2023/12/24 08:53:00;;;;;;;9.98;2.00;;;;;;;;;;4995417;28;20590;-80
2023/12/24 08:55:30;;;;;;;7.60;1.30;;;;;;;;;;5003171;28;20199;-81
2023/12/24 08:58:01;;;;;;;10.98;2.30;;;;;;;;;;4999069;28;20543;-81
2023/12/24 09:00:30;;;;;;;8.60;1.60;;;;;;;;;;4998189;28;20218;-81
2023/12/24 09:03:00;;;;;;;6.53;1.20;;;;;;;;;;4992069;28;20362;-81
2023/12/24 09:05:30;;;;;;;9.95;1.48;;;;;;;;;;4992486;28;20226;-81
2023/12/24 09:08:04;;;;;;;9.55;1.38;;;;;;;;;;4990555;28;20226;-81
2023/12/24 09:10:34;;;;;;;12.18;2.00;;;;;;;;;;4996784;28;20208;-83
2023/12/24 09:13:04;;;;;;;9.25;1.70;;;;;;;;;;4988636;28;20315;-81
2023/12/24 09:15:34;;;;;;;10.55;1.88;;;;;;;;;;4992265;28;20204;-81
2023/12/24 09:18:04;;;;;;;11.10;2.13;;;;;;;;;;4989499;28;20206;-81
2023/12/24 09:20:34;;;;;;;13.98;2.35;;;;;;;;;;4997544;28;20246;-82
2023/12/24 09:23:06;;;;;;;13.35;2.05;;;;;;;;;;4996740;28;20285;-81
2023/12/24 09:25:36;;;;;;;12.13;2.17;;;;;;;;;;4996215;28;20195;-81
2023/12/24 09:28:06;;;;;;;10.73;2.00;;;;;;;;;;4996094;28;20676;-81
2023/12/24 09:30:36;;;;;;;14.10;2.10;;;;;;;;;;4997292;28;20208;-82
2023/12/24 09:33:06;;;;;;;17.20;2.30;;;;;;;;;;4995261;28;20723;-80
2023/12/24 09:35:36;;;;;;;13.30;2.25;;;;;;;;;;4988306;28;20200;-81
2023/12/24 09:38:08;;;;;;;12.23;1.83;;;;;;;;;;4989859;28;20204;-81
2023/12/24 09:40:38;;;;;;;9.18;1.80;;;;;;;;;;4989689;28;20206;-81
2023/12/24 09:43:08;;;;;;;12.50;2.25;;;;;;;;;;4995242;28;20231;-81
2023/12/24 09:45:38;;;;;;;10.93;2.08;;;;;;;;;;4995933;28;20200;-81
2023/12/24 09:48:08;;;;;;;15.48;2.72;;;;;;;;;;4990486;28;20334;-81
2023/12/24 09:50:38;;;;;;;9.07;1.50;;;;;;;;;;4990933;28;20578;-81
2023/12/24 09:53:10;;;;;;;13.38;1.85;;;;;;;;;;4991797;28;20212;-81
2023/12/24 09:55:40;;;;;;;8.68;1.80;;;;;;;;;;4990546;28;20276;-81
2023/12/24 09:58:10;;;;;;;16.85;2.15;;;;;;;;;;4995345;28;20211;-81
2023/12/24 10:00:40;;;;;;;18.45;2.50;;;;;;;;;;4995153;28;20220;-81
2023/12/24 10:03:10;;;;;;;14.02;2.17;;;;;;;;;;4988728;28;20230;-81
2023/12/24 10:05:54;;;;;;;10.45;2.17;;;;;;;;;;4994804;28;20211;-80
2023/12/24 10:08:25;;;;;;;10.82;1.95;;;;;;;;;;4985707;28;20208;-81
2023/12/24 10:10:56;;;;;;;11.20;1.90;;;;;;;;;;4990159;28;20200;-81
2023/12/24 10:13:26;;;;;;;10.63;1.80;;;;;;;;;;4987752;28;20303;-81
2023/12/24 10:16:16;;;;;;;12.80;2.38;;;;;;;;;;4994327;28;20199;-80
2023/12/24 10:18:51;;;;;;;9.88;2.08;;;;;;;;;;4978480;28;20203;-83
2023/12/24 10:21:21;;;;;;;13.40;2.30;;;;;;;;;;4989997;28;20645;-83
2023/12/24 10:23:53;;;;;;;10.45;2.83;;;;;;;;;;4994696;28;20195;-81
2023/12/24 10:26:24;;;;;;;12.23;2.30;;;;;;;;;;4993915;28;20200;-85
2023/12/24 10:28:54;;;;;;;6.65;2.10;;;;;;;;;;4994795;28;20191;-85
2023/12/24 10:31:24;;;;;;;8.88;1.83;;;;;;;;;;4988868;28;20204;-83
2023/12/24 10:37:18;;;;;;;8.27;1.98;;;;;;;;;;4993250;28;20182;-84
2023/12/24 10:39:53;;;;;;;4.88;1.13;;;;;;;;;;4982830;28;20203;-84
2023/12/24 10:42:23;;;;;;;4.57;1.27;;;;;;;;;;4981569;28;20218;-84
2023/12/24 10:54:34;;;;;;;10.48;1.67;;;;;;;;;;4908763;29;20274;-83
2023/12/24 10:57:12;;;;;;;8.50;2.00;;;;;;;;;;4937098;28;20204;-83
2023/12/24 11:00:00;;;;;;;8.70;1.70;;;;;;;;;;4971108;28;20184;-83
2023/12/24 11:02:30;;;;;;;8.10;1.73;;;;;;;;;;5004419;28;20268;-82
2023/12/24 11:05:02;;;;;;;9.35;1.80;;;;;;;;;;5013520;28;20719;-82
2023/12/24 11:07:49;;;;;;;13.25;2.25;;;;;;;;;;5013715;28;20222;-83
2023/12/24 11:10:37;;;;;;;9.25;1.55;;;;;;;;;;5014196;28;20290;-81
2023/12/24 11:13:09;;;;;;;15.65;2.40;;;;;;;;;;5010604;28;20202;-82
2023/12/24 11:15:44;;;;;;;6.55;1.80;;;;;;;;;;5003419;28;20233;-82
2023/12/24 11:18:14;;;;;;;8.57;1.70;;;;;;;;;;5009572;28;20198;-81
2023/12/24 11:20:45;;;;;;;11.02;2.00;;;;;;;;;;5002150;28;20195;-83
2023/12/24 11:23:18;;;;;;;12.32;1.75;;;;;;;;;;4999863;28;20223;-81
2023/12/24 11:25:50;;;;;;;8.98;2.00;;;;;;;;;;4999917;28;20186;-81
2023/12/24 11:28:34;;;;;;;9.25;1.75;;;;;;;;;;5026929;28;20248;-80
2023/12/24 11:31:10;;;;;;;12.98;1.75;;;;;;;;;;5017951;28;20201;-81
2023/12/24 11:33:54;;;;;;;10.82;1.58;;;;;;;;;;5015636;28;20190;-81
2023/12/24 11:36:24;;;;;;;11.10;1.58;;;;;;;;;;5026037;28;20219;-81
2023/12/24 11:38:58;;;;;;;11.85;1.77;;;;;;;;;;5013848;28;20201;-82
2023/12/24 11:41:28;;;;;;;7.15;1.30;;;;;;;;;;5033248;28;20281;-81
2023/12/24 11:43:59;;;;;;;9.32;1.60;;;;;;;;;;5019653;28;20694;-81
2023/12/24 11:46:31;;;;;;;12.70;1.98;;;;;;;;;;5012436;28;20202;-81
2023/12/24 11:49:06;;;;;;;14.85;1.95;;;;;;;;;;5013284;28;20199;-79
2023/12/24 11:51:36;;;;;;;13.88;2.08;;;;;;;;;;5013562;28;20190;-81
2023/12/24 11:54:06;;;;;;;12.52;1.70;;;;;;;;;;5013784;28;20203;-80
2023/12/24 11:56:37;;;;;;;10.00;1.60;;;;;;;;;;5018375;28;20238;-81
2023/12/24 11:59:07;;;;;;;12.60;2.05;;;;;;;;;;5007097;28;20235;-80
2023/12/24 12:01:39;;;;;;;11.43;1.45;;;;;;;;;;5012665;28;20195;-81
2023/12/24 12:04:09;;;;;;;12.60;2.10;;;;;;;;;;5012208;28;20191;-78
2023/12/24 12:06:39;;;;;;;15.93;1.85;;;;;;;;;;5005169;28;20333;-80
2023/12/24 12:09:10;;;;;;;11.82;1.77;;;;;;;;;;4993860;28;20203;-79
2023/12/24 12:11:41;;;;;;;13.68;1.90;;;;;;;;;;4994017;28;20226;-80
2023/12/24 12:14:11;;;;;;;7.45;1.27;;;;;;;;;;4997715;28;20329;-80
2023/12/24 12:16:42;;;;;;;15.43;1.83;;;;;;;;;;5009508;28;20206;-80
2023/12/24 12:19:14;;;;;;;15.00;1.83;;;;;;;;;;4997384;28;20202;-81
2023/12/24 12:21:45;;;;;;;12.70;2.20;;;;;;;;;;5012051;28;20213;-81
2023/12/24 12:24:15;;;;;;;11.23;1.70;;;;;;;;;;5016552;28;20187;-81
2023/12/24 12:26:44;;;;;;;11.85;1.80;;;;;;;;;;5016538;28;20302;-80
2023/12/24 12:29:14;;;;;;;15.02;1.90;;;;;;;;;;5016267;28;20210;-81
2023/12/24 12:31:46;;;;;;;14.82;1.90;;;;;;;;;;5008268;28;20206;-80
2023/12/24 12:34:16;;;;;;;12.85;2.03;;;;;;;;;;5016368;28;20195;-79
2023/12/24 12:36:46;;;;;;;10.85;1.83;;;;;;;;;;5016421;28;20202;-79
2023/12/24 12:39:16;;;;;;;8.80;1.88;;;;;;;;;;5016891;28;20202;-80
2023/12/24 12:41:46;;;;;;;8.95;1.52;;;;;;;;;;5016247;28;20575;-80
2023/12/24 12:44:16;;;;;;;12.50;1.60;;;;;;;;;;5015795;28;20195;-81
2023/12/24 12:46:48;;;;;;;8.50;1.60;;;;;;;;;;5016142;28;20207;-80
2023/12/24 12:49:18;;;;;;;7.57;1.30;;;;;;;;;;5011051;28;20249;-80
2023/12/24 12:51:49;;;;;;;4.43;1.20;;;;;;;;;;5015947;28;20205;-79
2023/12/24 12:54:22;;;;;;;7.90;1.48;;;;;;;;;;5001608;28;20203;-79
2023/12/24 12:56:52;;;;;;;5.72;1.38;;;;;;;;;;5008387;28;20252;-79
2023/12/24 12:59:23;;;;;;;12.05;2.03;;;;;;;;;;5009903;28;20720;-79
2023/12/24 13:01:56;;;;;;;6.55;1.35;;;;;;;;;;5013261;28;20213;-77
2023/12/24 13:04:27;;;;;;;7.47;1.27;;;;;;;;;;5000621;28;20183;-80
2023/12/24 13:06:59;;;;;;;7.93;1.52;;;;;;;;;;5009591;28;20579;-80
2023/12/24 13:09:31;;;;;;;5.85;1.20;;;;;;;;;;5010835;28;20253;-79
2023/12/24 13:12:06;;;;;;;7.78;1.27;;;;;;;;;;4997306;28;20207;-80
2023/12/24 13:14:36;;;;;;;6.90;1.60;;;;;;;;;;5015114;28;20191;-80
2023/12/24 13:17:12;;;;;;;8.77;1.45;;;;;;;;;;5014823;28;20195;-80
2023/12/24 13:19:42;;;;;;;6.65;1.48;;;;;;;;;;5015345;28;20187;-81
2023/12/24 13:22:12;;;;;;;6.20;1.40;;;;;;;;;;5015606;28;20286;-81
2023/12/24 13:24:43;;;;;;;9.23;1.33;;;;;;;;;;5015615;28;20202;-81
2023/12/24 13:27:13;;;;;;;9.30;1.65;;;;;;;;;;5013025;28;20203;-81
2023/12/24 13:29:43;;;;;;;7.95;1.45;;;;;;;;;;5000207;28;20210;-79
2023/12/24 13:32:15;;;;;;;5.80;1.02;;;;;;;;;;5007041;28;20210;-79
2023/12/24 13:34:45;;;;;;;7.85;1.25;;;;;;;;;;4996234;28;20203;-79
2023/12/24 13:37:15;;;;;;;9.23;1.50;;;;;;;;;;5009495;28;20195;-80
2023/12/24 13:39:45;;;;;;;7.45;1.17;;;;;;;;;;5012358;28;20203;-78
2023/12/24 13:42:15;;;;;;;7.20;1.30;;;;;;;;;;5009247;28;20592;-81
2023/12/24 13:44:45;;;;;;;8.23;1.35;;;;;;;;;;5003035;28;20195;-78
2023/12/24 13:47:17;;;;;;;8.65;1.27;;;;;;;;;;5013305;28;20206;-78
2023/12/24 13:49:47;;;;;;;7.03;1.30;;;;;;;;;;5012643;28;20686;-80
2023/12/24 13:52:17;;;;;;;7.30;1.40;;;;;;;;;;5010259;28;20214;-81
2023/12/24 13:54:47;;;;;;;8.18;1.05;;;;;;;;;;5006342;28;20234;-81
2023/12/24 13:57:17;;;;;;;9.48;1.67;;;;;;;;;;5010830;28;20210;-81
2023/12/24 13:59:47;;;;;;;6.85;1.13;;;;;;;;;;5004610;28;20195;-78
2023/12/24 14:02:19;;;;;;;5.55;1.20;;;;;;;;;;5012507;28;20195;-82
2023/12/24 14:04:49;;;;;;;3.75;1.15;;;;;;;;;;5008020;28;20213;-80
2023/12/24 14:07:20;;;;;;;11.02;1.45;;;;;;;;;;5004762;28;20302;-82
2023/12/24 14:09:50;;;;;;;8.15;1.55;;;;;;;;;;5009403;28;20192;-81
2023/12/24 14:12:20;;;;;;;5.60;1.52;;;;;;;;;;5014945;28;20203;-78
2023/12/24 14:14:50;;;;;;;8.02;1.80;;;;;;;;;;5007892;28;20226;-81
2023/12/24 14:17:22;;;;;;;8.52;1.67;;;;;;;;;;5007060;28;20203;-81
2023/12/24 14:19:52;;;;;;;5.85;1.40;;;;;;;;;;5014342;28;20193;-81
2023/12/24 14:22:23;;;;;;;6.85;1.33;;;;;;;;;;5015540;28;20208;-81
2023/12/24 14:24:53;;;;;;;10.32;1.45;;;;;;;;;;5033189;28;20190;-82
2023/12/24 14:27:24;;;;;;;5.65;1.55;;;;;;;;;;5014369;28;20205;-82
2023/12/24 14:29:54;;;;;;;9.15;1.65;;;;;;;;;;5007209;28;20555;-81
2023/12/24 14:32:26;;;;;;;4.50;1.23;;;;;;;;;;5012991;28;20203;-82
2023/12/24 14:34:56;;;;;;;8.32;1.30;;;;;;;;;;5013674;28;20274;-82
2023/12/24 14:37:26;;;;;;;7.68;1.35;;;;;;;;;;5014153;28;20217;-83
2023/12/24 14:39:56;;;;;;;7.70;1.60;;;;;;;;;;5013789;28;20230;-82
2023/12/24 14:42:26;;;;;;;9.05;1.58;;;;;;;;;;5014259;28;20195;-82
2023/12/24 14:44:57;;;;;;;8.00;1.30;;;;;;;;;;5013846;28;20195;-79
2023/12/24 14:47:29;;;;;;;7.47;1.42;;;;;;;;;;5007770;28;20202;-83
2023/12/24 14:49:59;;;;;;;10.18;1.63;;;;;;;;;;5014759;28;20753;-82
2023/12/24 14:52:29;;;;;;;9.10;1.50;;;;;;;;;;5012461;28;20662;-82
2023/12/24 14:54:59;;;;;;;10.77;1.58;;;;;;;;;;5012207;28;20614;-81
2023/12/24 14:57:29;;;;;;;9.75;1.45;;;;;;;;;;5012627;28;20203;-82
2023/12/24 14:59:59;;;;;;;8.07;1.35;;;;;;;;;;5002194;28;20636;-82
2023/12/24 15:02:31;;;;;;;9.30;1.30;;;;;;;;;;5002441;28;20203;-82
2023/12/24 15:05:02;;;;;;;6.10;1.67;;;;;;;;;;5008149;28;20207;-79
2023/12/24 15:07:36;;;;;;;9.15;1.42;;;;;;;;;;5010556;28;20226;-82
2023/12/24 15:10:08;;;;;;;7.28;1.30;;;;;;;;;;4998648;28;20532;-82
2023/12/24 15:12:38;;;;;;;5.90;1.50;;;;;;;;;;4994636;28;20544;-81